sensor_id;sensor_type;location;lat;lon;timestamp;P1;durP1;ratioP1;P2;durP2;ratioP2
26014;SDS011;13793;55.388;37.844;2023-05-07T00:00:48;20.63;;;11.83;;
26014;SDS011;13793;55.388;37.844;2023-05-07T00:03:19;18.07;;;11.90;;
26014;SDS011;13793;55.388;37.844;2023-05-07T00:05:50;21.30;;;12.40;;
26014;SDS011;13793;55.388;37.844;2023-05-07T00:08:21;18.30;;;12.40;;
26014;SDS011;13793;55.388;37.844;2023-05-07T00:10:52;18.13;;;11.90;;
26014;SDS011;13793;55.388;37.844;2023-05-07T00:13:23;25.77;;;14.83;;
26014;SDS011;13793;55.388;37.844;2023-05-07T00:15:57;25.43;;;15.13;;
26014;SDS011;13793;55.388;37.844;2023-05-07T00:18:28;27.33;;;16.57;;
26014;SDS011;13793;55.388;37.844;2023-05-07T00:20:58;26.43;;;15.80;;
26014;SDS011;13793;55.388;37.844;2023-05-07T00:23:29;25.37;;;15.07;;
26014;SDS011;13793;55.388;37.844;2023-05-07T00:26:00;28.23;;;16.20;;
26014;SDS011;13793;55.388;37.844;2023-05-07T00:28:31;26.60;;;17.73;;
26014;SDS011;13793;55.388;37.844;2023-05-07T00:31:01;34.63;;;18.60;;
26014;SDS011;13793;55.388;37.844;2023-05-07T00:33:32;34.03;;;20.20;;
26014;SDS011;13793;55.388;37.844;2023-05-07T00:36:03;30.97;;;19.70;;
26014;SDS011;13793;55.388;37.844;2023-05-07T00:38:34;27.00;;;17.33;;
26014;SDS011;13793;55.388;37.844;2023-05-07T00:41:05;26.83;;;16.97;;
26014;SDS011;13793;55.388;37.844;2023-05-07T00:43:35;23.77;;;16.00;;
26014;SDS011;13793;55.388;37.844;2023-05-07T00:46:06;19.80;;;12.97;;
26014;SDS011;13793;55.388;37.844;2023-05-07T00:48:36;16.93;;;12.37;;
26014;SDS011;13793;55.388;37.844;2023-05-07T00:51:07;18.63;;;12.57;;
26014;SDS011;13793;55.388;37.844;2023-05-07T00:53:39;18.00;;;12.20;;
26014;SDS011;13793;55.388;37.844;2023-05-07T00:56:10;23.80;;;14.03;;
26014;SDS011;13793;55.388;37.844;2023-05-07T00:58:41;24.63;;;14.93;;
26014;SDS011;13793;55.388;37.844;2023-05-07T01:01:12;24.07;;;14.23;;
26014;SDS011;13793;55.388;37.844;2023-05-07T01:03:44;24.33;;;13.40;;
26014;SDS011;13793;55.388;37.844;2023-05-07T01:06:15;18.93;;;12.73;;
26014;SDS011;13793;55.388;37.844;2023-05-07T01:08:45;23.13;;;14.77;;
26014;SDS011;13793;55.388;37.844;2023-05-07T01:11:17;23.67;;;13.97;;
26014;SDS011;13793;55.388;37.844;2023-05-07T01:13:49;26.90;;;16.47;;
26014;SDS011;13793;55.388;37.844;2023-05-07T01:16:20;34.23;;;18.63;;
26014;SDS011;13793;55.388;37.844;2023-05-07T01:18:51;29.43;;;17.30;;
26014;SDS011;13793;55.388;37.844;2023-05-07T01:21:25;33.47;;;17.70;;
26014;SDS011;13793;55.388;37.844;2023-05-07T01:23:56;32.90;;;17.97;;
26014;SDS011;13793;55.388;37.844;2023-05-07T01:26:28;31.60;;;17.60;;
26014;SDS011;13793;55.388;37.844;2023-05-07T01:28:58;32.07;;;17.27;;
26014;SDS011;13793;55.388;37.844;2023-05-07T01:31:29;31.93;;;17.60;;
26014;SDS011;13793;55.388;37.844;2023-05-07T01:34:00;27.07;;;15.97;;
26014;SDS011;13793;55.388;37.844;2023-05-07T01:36:32;25.97;;;15.50;;
26014;SDS011;13793;55.388;37.844;2023-05-07T01:39:03;33.43;;;16.80;;
26014;SDS011;13793;55.388;37.844;2023-05-07T01:41:37;26.87;;;15.30;;
26014;SDS011;13793;55.388;37.844;2023-05-07T01:44:08;22.43;;;14.13;;
26014;SDS011;13793;55.388;37.844;2023-05-07T01:46:40;23.17;;;13.87;;
26014;SDS011;13793;55.388;37.844;2023-05-07T01:49:10;23.83;;;13.63;;
26014;SDS011;13793;55.388;37.844;2023-05-07T01:51:44;21.83;;;13.30;;
26014;SDS011;13793;55.388;37.844;2023-05-07T01:54:14;23.43;;;13.37;;
26014;SDS011;13793;55.388;37.844;2023-05-07T01:56:45;21.50;;;12.33;;
26014;SDS011;13793;55.388;37.844;2023-05-07T01:59:17;17.80;;;11.27;;
26014;SDS011;13793;55.388;37.844;2023-05-07T02:01:47;17.13;;;11.47;;
26014;SDS011;13793;55.388;37.844;2023-05-07T02:04:18;16.20;;;10.37;;
26014;SDS011;13793;55.388;37.844;2023-05-07T02:06:49;16.17;;;10.40;;
26014;SDS011;13793;55.388;37.844;2023-05-07T02:09:20;15.63;;;10.17;;
26014;SDS011;13793;55.388;37.844;2023-05-07T02:11:52;16.60;;;9.90;;
26014;SDS011;13793;55.388;37.844;2023-05-07T02:14:23;15.53;;;9.83;;
26014;SDS011;13793;55.388;37.844;2023-05-07T02:16:54;17.67;;;10.60;;
26014;SDS011;13793;55.388;37.844;2023-05-07T02:19:25;14.30;;;10.87;;
26014;SDS011;13793;55.388;37.844;2023-05-07T02:21:56;14.90;;;9.43;;
26014;SDS011;13793;55.388;37.844;2023-05-07T02:24:28;15.17;;;10.23;;
26014;SDS011;13793;55.388;37.844;2023-05-07T02:26:59;25.17;;;16.27;;
26014;SDS011;13793;55.388;37.844;2023-05-07T02:29:31;23.07;;;15.00;;
26014;SDS011;13793;55.388;37.844;2023-05-07T02:32:01;17.97;;;11.87;;
26014;SDS011;13793;55.388;37.844;2023-05-07T02:34:32;14.07;;;10.00;;
26014;SDS011;13793;55.388;37.844;2023-05-07T02:37:03;14.50;;;9.47;;
26014;SDS011;13793;55.388;37.844;2023-05-07T02:39:34;21.43;;;14.50;;
26014;SDS011;13793;55.388;37.844;2023-05-07T02:42:05;30.47;;;19.43;;
26014;SDS011;13793;55.388;37.844;2023-05-07T02:44:35;25.17;;;17.23;;
26014;SDS011;13793;55.388;37.844;2023-05-07T02:47:06;25.03;;;15.63;;
26014;SDS011;13793;55.388;37.844;2023-05-07T02:49:38;18.40;;;13.13;;
26014;SDS011;13793;55.388;37.844;2023-05-07T02:52:09;21.03;;;11.17;;
26014;SDS011;13793;55.388;37.844;2023-05-07T02:54:40;16.80;;;10.50;;
26014;SDS011;13793;55.388;37.844;2023-05-07T02:57:10;12.90;;;9.27;;
26014;SDS011;13793;55.388;37.844;2023-05-07T02:59:41;14.83;;;10.10;;
26014;SDS011;13793;55.388;37.844;2023-05-07T03:02:12;13.73;;;8.77;;
26014;SDS011;13793;55.388;37.844;2023-05-07T03:04:43;11.73;;;7.87;;
26014;SDS011;13793;55.388;37.844;2023-05-07T03:07:13;14.20;;;8.47;;
26014;SDS011;13793;55.388;37.844;2023-05-07T03:09:44;13.97;;;7.77;;
26014;SDS011;13793;55.388;37.844;2023-05-07T03:12:15;15.87;;;8.77;;
26014;SDS011;13793;55.388;37.844;2023-05-07T03:14:46;15.60;;;9.30;;
26014;SDS011;13793;55.388;37.844;2023-05-07T03:17:17;14.03;;;9.33;;
26014;SDS011;13793;55.388;37.844;2023-05-07T03:19:48;13.70;;;9.10;;
26014;SDS011;13793;55.388;37.844;2023-05-07T03:22:20;13.87;;;9.63;;
26014;SDS011;13793;55.388;37.844;2023-05-07T03:24:50;14.63;;;8.50;;
26014;SDS011;13793;55.388;37.844;2023-05-07T03:27:21;12.17;;;8.23;;
26014;SDS011;13793;55.388;37.844;2023-05-07T03:29:52;10.70;;;7.70;;
26014;SDS011;13793;55.388;37.844;2023-05-07T03:32:23;11.20;;;8.10;;
26014;SDS011;13793;55.388;37.844;2023-05-07T03:34:54;14.70;;;8.43;;
26014;SDS011;13793;55.388;37.844;2023-05-07T03:37:25;12.33;;;7.97;;
26014;SDS011;13793;55.388;37.844;2023-05-07T03:39:56;10.13;;;7.10;;
26014;SDS011;13793;55.388;37.844;2023-05-07T03:42:29;9.03;;;6.33;;
26014;SDS011;13793;55.388;37.844;2023-05-07T03:45:00;10.17;;;7.03;;
26014;SDS011;13793;55.388;37.844;2023-05-07T03:47:32;9.63;;;7.33;;
26014;SDS011;13793;55.388;37.844;2023-05-07T03:50:02;11.73;;;7.10;;
26014;SDS011;13793;55.388;37.844;2023-05-07T03:52:34;10.03;;;6.70;;
26014;SDS011;13793;55.388;37.844;2023-05-07T03:55:05;9.23;;;6.93;;
26014;SDS011;13793;55.388;37.844;2023-05-07T03:57:37;9.00;;;6.80;;
26014;SDS011;13793;55.388;37.844;2023-05-07T04:00:09;11.40;;;6.70;;
26014;SDS011;13793;55.388;37.844;2023-05-07T04:02:41;10.30;;;6.10;;
26014;SDS011;13793;55.388;37.844;2023-05-07T04:05:12;12.23;;;6.90;;
26014;SDS011;13793;55.388;37.844;2023-05-07T04:07:44;13.87;;;7.00;;
26014;SDS011;13793;55.388;37.844;2023-05-07T04:10:16;8.57;;;6.30;;
26014;SDS011;13793;55.388;37.844;2023-05-07T04:12:47;7.63;;;5.87;;
26014;SDS011;13793;55.388;37.844;2023-05-07T04:15:19;7.67;;;6.00;;
26014;SDS011;13793;55.388;37.844;2023-05-07T04:17:50;7.90;;;5.67;;
26014;SDS011;13793;55.388;37.844;2023-05-07T04:20:21;11.13;;;6.30;;
26014;SDS011;13793;55.388;37.844;2023-05-07T04:22:54;10.90;;;6.03;;
26014;SDS011;13793;55.388;37.844;2023-05-07T04:25:25;8.00;;;5.63;;
26014;SDS011;13793;55.388;37.844;2023-05-07T04:27:57;9.13;;;5.37;;
26014;SDS011;13793;55.388;37.844;2023-05-07T04:30:28;7.80;;;5.20;;
26014;SDS011;13793;55.388;37.844;2023-05-07T04:32:59;7.60;;;5.27;;
26014;SDS011;13793;55.388;37.844;2023-05-07T04:35:30;7.23;;;5.27;;
26014;SDS011;13793;55.388;37.844;2023-05-07T04:38:01;7.13;;;5.43;;
26014;SDS011;13793;55.388;37.844;2023-05-07T04:40:32;7.00;;;4.73;;
26014;SDS011;13793;55.388;37.844;2023-05-07T04:43:03;6.00;;;4.87;;
26014;SDS011;13793;55.388;37.844;2023-05-07T04:45:36;7.80;;;4.83;;
26014;SDS011;13793;55.388;37.844;2023-05-07T04:48:09;7.63;;;5.30;;
26014;SDS011;13793;55.388;37.844;2023-05-07T04:50:40;8.70;;;4.93;;
26014;SDS011;13793;55.388;37.844;2023-05-07T04:53:12;7.70;;;5.10;;
26014;SDS011;13793;55.388;37.844;2023-05-07T04:55:42;7.13;;;4.90;;
26014;SDS011;13793;55.388;37.844;2023-05-07T04:58:13;9.50;;;5.70;;
26014;SDS011;13793;55.388;37.844;2023-05-07T05:00:44;7.77;;;5.90;;
26014;SDS011;13793;55.388;37.844;2023-05-07T05:03:15;7.43;;;5.53;;
26014;SDS011;13793;55.388;37.844;2023-05-07T05:05:46;9.33;;;5.80;;
26014;SDS011;13793;55.388;37.844;2023-05-07T05:08:18;7.30;;;5.00;;
26014;SDS011;13793;55.388;37.844;2023-05-07T05:10:49;5.73;;;4.60;;
26014;SDS011;13793;55.388;37.844;2023-05-07T05:13:20;7.03;;;4.60;;
26014;SDS011;13793;55.388;37.844;2023-05-07T05:15:50;6.80;;;4.40;;
26014;SDS011;13793;55.388;37.844;2023-05-07T05:18:22;7.30;;;4.67;;
26014;SDS011;13793;55.388;37.844;2023-05-07T05:20:53;9.70;;;4.93;;
26014;SDS011;13793;55.388;37.844;2023-05-07T05:23:24;6.23;;;4.80;;
26014;SDS011;13793;55.388;37.844;2023-05-07T05:25:57;5.53;;;4.40;;
26014;SDS011;13793;55.388;37.844;2023-05-07T05:28:30;6.20;;;4.03;;
26014;SDS011;13793;55.388;37.844;2023-05-07T05:31:01;6.67;;;4.00;;
26014;SDS011;13793;55.388;37.844;2023-05-07T05:33:33;6.53;;;4.00;;
26014;SDS011;13793;55.388;37.844;2023-05-07T05:36:05;4.77;;;3.20;;
26014;SDS011;13793;55.388;37.844;2023-05-07T05:38:38;3.33;;;3.00;;
26014;SDS011;13793;55.388;37.844;2023-05-07T05:41:10;4.33;;;2.90;;
26014;SDS011;13793;55.388;37.844;2023-05-07T05:43:40;3.60;;;2.70;;
26014;SDS011;13793;55.388;37.844;2023-05-07T05:46:11;5.67;;;2.90;;
26014;SDS011;13793;55.388;37.844;2023-05-07T05:48:42;3.43;;;2.77;;
26014;SDS011;13793;55.388;37.844;2023-05-07T05:51:12;3.73;;;2.63;;
26014;SDS011;13793;55.388;37.844;2023-05-07T05:53:43;5.87;;;2.60;;
26014;SDS011;13793;55.388;37.844;2023-05-07T05:56:15;5.33;;;2.97;;
26014;SDS011;13793;55.388;37.844;2023-05-07T05:58:46;5.87;;;2.73;;
26014;SDS011;13793;55.388;37.844;2023-05-07T06:01:17;6.43;;;2.63;;
26014;SDS011;13793;55.388;37.844;2023-05-07T06:03:48;4.93;;;3.03;;
26014;SDS011;13793;55.388;37.844;2023-05-07T06:06:19;4.10;;;2.40;;
26014;SDS011;13793;55.388;37.844;2023-05-07T06:08:50;4.10;;;2.30;;
26014;SDS011;13793;55.388;37.844;2023-05-07T06:11:22;5.03;;;2.33;;
26014;SDS011;13793;55.388;37.844;2023-05-07T06:13:53;2.47;;;1.97;;
26014;SDS011;13793;55.388;37.844;2023-05-07T06:16:24;3.73;;;2.20;;
26014;SDS011;13793;55.388;37.844;2023-05-07T06:18:56;2.63;;;2.00;;
26014;SDS011;13793;55.388;37.844;2023-05-07T06:21:26;3.50;;;2.10;;
26014;SDS011;13793;55.388;37.844;2023-05-07T06:23:57;2.23;;;2.03;;
26014;SDS011;13793;55.388;37.844;2023-05-07T06:26:27;2.97;;;2.00;;
26014;SDS011;13793;55.388;37.844;2023-05-07T06:28:58;4.67;;;1.97;;
26014;SDS011;13793;55.388;37.844;2023-05-07T06:31:30;3.97;;;2.10;;
26014;SDS011;13793;55.388;37.844;2023-05-07T06:34:04;4.53;;;2.20;;
26014;SDS011;13793;55.388;37.844;2023-05-07T06:36:37;2.67;;;2.10;;
26014;SDS011;13793;55.388;37.844;2023-05-07T06:39:09;3.33;;;2.00;;
26014;SDS011;13793;55.388;37.844;2023-05-07T06:41:40;2.53;;;2.30;;
26014;SDS011;13793;55.388;37.844;2023-05-07T06:44:13;4.70;;;2.20;;
26014;SDS011;13793;55.388;37.844;2023-05-07T06:46:45;2.90;;;2.33;;
26014;SDS011;13793;55.388;37.844;2023-05-07T06:49:15;3.90;;;2.40;;
26014;SDS011;13793;55.388;37.844;2023-05-07T06:51:46;5.67;;;2.70;;
26014;SDS011;13793;55.388;37.844;2023-05-07T06:54:18;4.30;;;2.60;;
26014;SDS011;13793;55.388;37.844;2023-05-07T06:56:48;4.30;;;2.37;;
26014;SDS011;13793;55.388;37.844;2023-05-07T06:59:19;5.53;;;2.60;;
26014;SDS011;13793;55.388;37.844;2023-05-07T07:01:50;3.67;;;1.83;;
26014;SDS011;13793;55.388;37.844;2023-05-07T07:04:21;4.47;;;2.20;;
26014;SDS011;13793;55.388;37.844;2023-05-07T07:06:54;4.10;;;2.30;;
26014;SDS011;13793;55.388;37.844;2023-05-07T07:09:25;3.03;;;2.23;;
26014;SDS011;13793;55.388;37.844;2023-05-07T07:11:57;4.00;;;1.97;;
26014;SDS011;13793;55.388;37.844;2023-05-07T07:14:27;2.47;;;2.10;;
26014;SDS011;13793;55.388;37.844;2023-05-07T07:16:58;4.55;;;2.42;;
26014;SDS011;13793;55.388;37.844;2023-05-07T07:19:29;4.00;;;2.22;;
26014;SDS011;13793;55.388;37.844;2023-05-07T07:22:00;2.47;;;2.00;;
26014;SDS011;13793;55.388;37.844;2023-05-07T07:24:31;2.60;;;2.30;;
26014;SDS011;13793;55.388;37.844;2023-05-07T07:27:03;2.90;;;2.23;;
26014;SDS011;13793;55.388;37.844;2023-05-07T07:29:35;3.93;;;2.20;;
26014;SDS011;13793;55.388;37.844;2023-05-07T07:32:05;3.10;;;2.20;;
26014;SDS011;13793;55.388;37.844;2023-05-07T07:34:36;3.60;;;2.63;;
26014;SDS011;13793;55.388;37.844;2023-05-07T07:37:08;3.03;;;2.20;;
26014;SDS011;13793;55.388;37.844;2023-05-07T07:39:39;5.87;;;2.87;;
26014;SDS011;13793;55.388;37.844;2023-05-07T07:42:10;7.43;;;4.60;;
26014;SDS011;13793;55.388;37.844;2023-05-07T07:44:41;4.97;;;2.47;;
26014;SDS011;13793;55.388;37.844;2023-05-07T07:47:11;6.10;;;2.80;;
26014;SDS011;13793;55.388;37.844;2023-05-07T07:49:42;3.10;;;2.60;;
26014;SDS011;13793;55.388;37.844;2023-05-07T07:52:13;3.27;;;2.83;;
26014;SDS011;13793;55.388;37.844;2023-05-07T07:54:45;4.57;;;2.40;;
26014;SDS011;13793;55.388;37.844;2023-05-07T07:57:15;3.23;;;1.93;;
26014;SDS011;13793;55.388;37.844;2023-05-07T07:59:47;2.97;;;2.10;;
26014;SDS011;13793;55.388;37.844;2023-05-07T08:02:18;5.10;;;2.47;;
26014;SDS011;13793;55.388;37.844;2023-05-07T08:04:53;6.23;;;2.50;;
26014;SDS011;13793;55.388;37.844;2023-05-07T08:07:24;4.27;;;2.20;;
26014;SDS011;13793;55.388;37.844;2023-05-07T08:09:55;4.57;;;2.63;;
26014;SDS011;13793;55.388;37.844;2023-05-07T08:12:25;5.00;;;2.50;;
26014;SDS011;13793;55.388;37.844;2023-05-07T08:14:56;7.00;;;4.93;;
26014;SDS011;13793;55.388;37.844;2023-05-07T08:17:29;4.83;;;3.07;;
26014;SDS011;13793;55.388;37.844;2023-05-07T08:20:00;3.43;;;2.57;;
26014;SDS011;13793;55.388;37.844;2023-05-07T08:22:30;3.90;;;2.50;;
26014;SDS011;13793;55.388;37.844;2023-05-07T08:25:01;3.63;;;2.40;;
26014;SDS011;13793;55.388;37.844;2023-05-07T08:27:33;6.20;;;2.57;;
26014;SDS011;13793;55.388;37.844;2023-05-07T08:30:04;2.73;;;2.10;;
26014;SDS011;13793;55.388;37.844;2023-05-07T08:32:37;3.90;;;2.10;;
26014;SDS011;13793;55.388;37.844;2023-05-07T08:35:07;3.30;;;2.10;;
26014;SDS011;13793;55.388;37.844;2023-05-07T08:37:39;4.93;;;2.40;;
26014;SDS011;13793;55.388;37.844;2023-05-07T08:40:10;5.97;;;2.40;;
26014;SDS011;13793;55.388;37.844;2023-05-07T08:42:41;4.20;;;2.40;;
26014;SDS011;13793;55.388;37.844;2023-05-07T08:45:14;3.00;;;2.33;;
26014;SDS011;13793;55.388;37.844;2023-05-07T08:47:55;4.80;;;2.10;;
26014;SDS011;13793;55.388;37.844;2023-05-07T08:50:22;2.52;;;1.92;;
26014;SDS011;13793;55.388;37.844;2023-05-07T08:52:53;2.20;;;1.67;;
26014;SDS011;13793;55.388;37.844;2023-05-07T08:55:25;4.53;;;2.03;;
26014;SDS011;13793;55.388;37.844;2023-05-07T08:57:56;3.17;;;2.00;;
26014;SDS011;13793;55.388;37.844;2023-05-07T09:00:27;2.20;;;1.93;;
26014;SDS011;13793;55.388;37.844;2023-05-07T09:02:58;4.53;;;2.40;;
26014;SDS011;13793;55.388;37.844;2023-05-07T09:05:29;4.50;;;2.67;;
26014;SDS011;13793;55.388;37.844;2023-05-07T09:08:05;2.77;;;2.23;;
26014;SDS011;13793;55.388;37.844;2023-05-07T09:10:37;2.93;;;2.40;;
26014;SDS011;13793;55.388;37.844;2023-05-07T09:13:09;2.70;;;2.43;;
26014;SDS011;13793;55.388;37.844;2023-05-07T09:15:41;3.73;;;2.27;;
26014;SDS011;13793;55.388;37.844;2023-05-07T09:18:12;5.70;;;2.83;;
26014;SDS011;13793;55.388;37.844;2023-05-07T09:20:43;7.03;;;3.57;;
26014;SDS011;13793;55.388;37.844;2023-05-07T09:23:14;5.03;;;2.67;;
26014;SDS011;13793;55.388;37.844;2023-05-07T09:25:44;2.87;;;2.10;;
26014;SDS011;13793;55.388;37.844;2023-05-07T09:28:17;3.03;;;2.10;;
26014;SDS011;13793;55.388;37.844;2023-05-07T09:30:48;3.17;;;2.10;;
26014;SDS011;13793;55.388;37.844;2023-05-07T09:33:19;5.87;;;2.33;;
26014;SDS011;13793;55.388;37.844;2023-05-07T09:35:52;5.03;;;2.40;;
26014;SDS011;13793;55.388;37.844;2023-05-07T09:38:22;5.20;;;1.90;;
26014;SDS011;13793;55.388;37.844;2023-05-07T09:41:07;5.23;;;2.80;;
26014;SDS011;13793;55.388;37.844;2023-05-07T09:43:40;5.30;;;2.30;;
26014;SDS011;13793;55.388;37.844;2023-05-07T09:46:13;7.37;;;4.27;;
26014;SDS011;13793;55.388;37.844;2023-05-07T09:48:46;4.92;;;4.35;;
26014;SDS011;13793;55.388;37.844;2023-05-07T09:51:22;4.95;;;4.40;;
26014;SDS011;13793;55.388;37.844;2023-05-07T09:54:00;3.87;;;1.85;;
26014;SDS011;13793;55.388;37.844;2023-05-07T09:56:32;2.75;;;2.20;;
26014;SDS011;13793;55.388;37.844;2023-05-07T09:59:03;18.40;;;12.23;;
26014;SDS011;13793;55.388;37.844;2023-05-07T10:01:36;39.03;;;23.95;;
26014;SDS011;13793;55.388;37.844;2023-05-07T10:04:06;25.00;;;13.90;;
26014;SDS011;13793;55.388;37.844;2023-05-07T10:06:38;8.07;;;6.40;;
26014;SDS011;13793;55.388;37.844;2023-05-07T10:09:08;6.80;;;3.17;;
26014;SDS011;13793;55.388;37.844;2023-05-07T10:11:40;5.43;;;2.80;;
26014;SDS011;13793;55.388;37.844;2023-05-07T10:14:11;3.97;;;2.03;;
26014;SDS011;13793;55.388;37.844;2023-05-07T10:16:42;3.25;;;2.20;;
26014;SDS011;13793;55.388;37.844;2023-05-07T10:19:14;2.47;;;2.25;;
26014;SDS011;13793;55.388;37.844;2023-05-07T10:21:48;7.65;;;2.75;;
26014;SDS011;13793;55.388;37.844;2023-05-07T10:24:26;9.45;;;4.90;;
26014;SDS011;13793;55.388;37.844;2023-05-07T10:27:11;7.70;;;3.60;;
26014;SDS011;13793;55.388;37.844;2023-05-07T10:30:01;6.03;;;2.60;;
26014;SDS011;13793;55.388;37.844;2023-05-07T10:32:53;6.17;;;2.40;;
26014;SDS011;13793;55.388;37.844;2023-05-07T10:35:26;2.50;;;2.17;;
26014;SDS011;13793;55.388;37.844;2023-05-07T10:38:00;5.17;;;2.40;;
26014;SDS011;13793;55.388;37.844;2023-05-07T10:40:32;3.03;;;2.20;;
26014;SDS011;13793;55.388;37.844;2023-05-07T10:43:04;4.80;;;2.20;;
26014;SDS011;13793;55.388;37.844;2023-05-07T10:51:46;4.15;;;2.20;;
26014;SDS011;13793;55.388;37.844;2023-05-07T10:54:21;3.77;;;2.50;;
26014;SDS011;13793;55.388;37.844;2023-05-07T10:56:54;2.20;;;1.90;;
26014;SDS011;13793;55.388;37.844;2023-05-07T10:59:33;3.00;;;1.80;;
26014;SDS011;13793;55.388;37.844;2023-05-07T11:02:07;3.10;;;1.90;;
26014;SDS011;13793;55.388;37.844;2023-05-07T11:04:44;4.97;;;3.70;;
26014;SDS011;13793;55.388;37.844;2023-05-07T11:07:27;3.70;;;2.80;;
26014;SDS011;13793;55.388;37.844;2023-05-07T11:10:01;2.30;;;2.10;;
26014;SDS011;13793;55.388;37.844;2023-05-07T11:15:13;3.93;;;2.00;;
26014;SDS011;13793;55.388;37.844;2023-05-07T11:17:57;6.70;;;3.17;;
26014;SDS011;13793;55.388;37.844;2023-05-07T11:20:45;4.33;;;2.10;;
26014;SDS011;13793;55.388;37.844;2023-05-07T11:26:19;3.03;;;1.60;;
26014;SDS011;13793;55.388;37.844;2023-05-07T11:28:50;5.60;;;3.43;;
26014;SDS011;13793;55.388;37.844;2023-05-07T11:31:23;3.27;;;2.90;;
26014;SDS011;13793;55.388;37.844;2023-05-07T11:33:58;2.20;;;2.00;;
26014;SDS011;13793;55.388;37.844;2023-05-07T11:36:31;3.60;;;2.00;;
26014;SDS011;13793;55.388;37.844;2023-05-07T11:39:02;10.30;;;6.90;;
26014;SDS011;13793;55.388;37.844;2023-05-07T11:41:34;6.37;;;4.73;;
26014;SDS011;13793;55.388;37.844;2023-05-07T11:44:12;4.20;;;3.00;;
26014;SDS011;13793;55.388;37.844;2023-05-07T11:46:42;5.77;;;2.70;;
26014;SDS011;13793;55.388;37.844;2023-05-07T11:49:14;4.33;;;2.20;;
26014;SDS011;13793;55.388;37.844;2023-05-07T11:51:44;6.47;;;4.43;;
26014;SDS011;13793;55.388;37.844;2023-05-07T11:54:15;6.97;;;4.95;;
26014;SDS011;13793;55.388;37.844;2023-05-07T11:56:46;2.40;;;2.20;;
26014;SDS011;13793;55.388;37.844;2023-05-07T11:59:17;5.53;;;3.35;;
26014;SDS011;13793;55.388;37.844;2023-05-07T12:01:48;3.57;;;2.20;;
26014;SDS011;13793;55.388;37.844;2023-05-07T12:04:19;4.10;;;2.20;;
26014;SDS011;13793;55.388;37.844;2023-05-07T12:06:53;4.57;;;2.90;;
26014;SDS011;13793;55.388;37.844;2023-05-07T12:09:24;3.43;;;2.20;;
26014;SDS011;13793;55.388;37.844;2023-05-07T12:11:56;4.83;;;2.00;;
26014;SDS011;13793;55.388;37.844;2023-05-07T12:14:29;4.03;;;2.57;;
26014;SDS011;13793;55.388;37.844;2023-05-07T12:17:01;2.37;;;1.90;;
26014;SDS011;13793;55.388;37.844;2023-05-07T12:19:32;3.00;;;2.50;;
26014;SDS011;13793;55.388;37.844;2023-05-07T12:22:04;4.23;;;2.17;;
26014;SDS011;13793;55.388;37.844;2023-05-07T12:25:11;3.50;;;2.60;;
26014;SDS011;13793;55.388;37.844;2023-05-07T12:27:15;4.13;;;3.00;;
26014;SDS011;13793;55.388;37.844;2023-05-07T12:29:46;4.33;;;2.13;;
26014;SDS011;13793;55.388;37.844;2023-05-07T12:32:17;2.43;;;1.90;;
26014;SDS011;13793;55.388;37.844;2023-05-07T12:34:49;2.97;;;1.80;;
26014;SDS011;13793;55.388;37.844;2023-05-07T12:37:24;3.20;;;1.80;;
26014;SDS011;13793;55.388;37.844;2023-05-07T12:40:04;4.97;;;2.10;;
26014;SDS011;13793;55.388;37.844;2023-05-07T12:42:39;3.53;;;1.97;;
26014;SDS011;13793;55.388;37.844;2023-05-07T12:45:11;4.67;;;3.30;;
26014;SDS011;13793;55.388;37.844;2023-05-07T12:47:45;5.17;;;2.60;;
26014;SDS011;13793;55.388;37.844;2023-05-07T12:50:17;3.33;;;2.60;;
26014;SDS011;13793;55.388;37.844;2023-05-07T12:52:49;4.93;;;4.03;;
26014;SDS011;13793;55.388;37.844;2023-05-07T12:55:20;4.60;;;2.80;;
26014;SDS011;13793;55.388;37.844;2023-05-07T12:57:51;3.63;;;2.20;;
26014;SDS011;13793;55.388;37.844;2023-05-07T13:00:35;4.00;;;2.00;;
26014;SDS011;13793;55.388;37.844;2023-05-07T13:03:07;2.97;;;1.93;;
26014;SDS011;13793;55.388;37.844;2023-05-07T13:05:37;7.80;;;4.70;;
26014;SDS011;13793;55.388;37.844;2023-05-07T13:08:08;17.20;;;9.73;;
26014;SDS011;13793;55.388;37.844;2023-05-07T13:10:39;14.47;;;6.27;;
26014;SDS011;13793;55.388;37.844;2023-05-07T13:13:09;6.47;;;4.10;;
26014;SDS011;13793;55.388;37.844;2023-05-07T13:15:40;10.30;;;6.30;;
26014;SDS011;13793;55.388;37.844;2023-05-07T13:18:11;8.60;;;4.60;;
26014;SDS011;13793;55.388;37.844;2023-05-07T13:20:42;6.43;;;4.13;;
26014;SDS011;13793;55.388;37.844;2023-05-07T13:23:12;7.70;;;4.33;;
26014;SDS011;13793;55.388;37.844;2023-05-07T13:25:43;4.60;;;2.30;;
26014;SDS011;13793;55.388;37.844;2023-05-07T13:28:14;3.00;;;2.20;;
26014;SDS011;13793;55.388;37.844;2023-05-07T13:30:44;4.07;;;2.07;;
26014;SDS011;13793;55.388;37.844;2023-05-07T13:33:15;2.87;;;2.10;;
26014;SDS011;13793;55.388;37.844;2023-05-07T13:35:46;3.83;;;2.10;;
26014;SDS011;13793;55.388;37.844;2023-05-07T13:38:17;3.00;;;2.10;;
26014;SDS011;13793;55.388;37.844;2023-05-07T13:40:48;5.60;;;2.33;;
26014;SDS011;13793;55.388;37.844;2023-05-07T13:43:19;3.30;;;2.30;;
26014;SDS011;13793;55.388;37.844;2023-05-07T13:45:50;4.63;;;2.17;;
26014;SDS011;13793;55.388;37.844;2023-05-07T13:48:20;4.17;;;2.13;;
26014;SDS011;13793;55.388;37.844;2023-05-07T13:50:51;5.57;;;2.10;;
26014;SDS011;13793;55.388;37.844;2023-05-07T13:53:22;5.87;;;3.03;;
26014;SDS011;13793;55.388;37.844;2023-05-07T13:55:53;2.97;;;2.17;;
26014;SDS011;13793;55.388;37.844;2023-05-07T13:58:23;4.33;;;2.93;;
26014;SDS011;13793;55.388;37.844;2023-05-07T14:00:54;3.90;;;2.60;;
26014;SDS011;13793;55.388;37.844;2023-05-07T14:03:25;6.20;;;2.87;;
26014;SDS011;13793;55.388;37.844;2023-05-07T14:05:55;5.07;;;2.60;;
26014;SDS011;13793;55.388;37.844;2023-05-07T14:08:27;3.53;;;2.37;;
26014;SDS011;13793;55.388;37.844;2023-05-07T14:10:58;3.87;;;1.97;;
26014;SDS011;13793;55.388;37.844;2023-05-07T14:13:29;3.20;;;1.80;;
26014;SDS011;13793;55.388;37.844;2023-05-07T14:15:59;2.77;;;1.77;;
26014;SDS011;13793;55.388;37.844;2023-05-07T14:18:30;4.03;;;1.83;;
26014;SDS011;13793;55.388;37.844;2023-05-07T14:21:03;3.90;;;2.13;;
26014;SDS011;13793;55.388;37.844;2023-05-07T14:23:38;4.60;;;2.50;;
26014;SDS011;13793;55.388;37.844;2023-05-07T14:26:09;6.80;;;3.00;;
26014;SDS011;13793;55.388;37.844;2023-05-07T14:28:40;5.53;;;2.27;;
26014;SDS011;13793;55.388;37.844;2023-05-07T14:31:12;4.33;;;2.33;;
26014;SDS011;13793;55.388;37.844;2023-05-07T14:33:43;2.67;;;2.00;;
26014;SDS011;13793;55.388;37.844;2023-05-07T14:36:14;4.53;;;1.80;;
26014;SDS011;13793;55.388;37.844;2023-05-07T14:38:48;4.93;;;2.03;;
26014;SDS011;13793;55.388;37.844;2023-05-07T14:41:19;3.10;;;2.10;;
26014;SDS011;13793;55.388;37.844;2023-05-07T14:43:50;4.43;;;2.60;;
26014;SDS011;13793;55.388;37.844;2023-05-07T14:46:21;5.77;;;2.40;;
26014;SDS011;13793;55.388;37.844;2023-05-07T14:48:53;5.67;;;2.40;;
26014;SDS011;13793;55.388;37.844;2023-05-07T14:51:24;3.30;;;2.07;;
26014;SDS011;13793;55.388;37.844;2023-05-07T14:53:56;5.77;;;2.50;;
26014;SDS011;13793;55.388;37.844;2023-05-07T14:56:27;4.43;;;3.10;;
26014;SDS011;13793;55.388;37.844;2023-05-07T14:58:58;4.53;;;3.10;;
26014;SDS011;13793;55.388;37.844;2023-05-07T15:01:29;4.30;;;3.10;;
26014;SDS011;13793;55.388;37.844;2023-05-07T15:03:59;5.77;;;3.30;;
26014;SDS011;13793;55.388;37.844;2023-05-07T15:06:30;6.27;;;3.00;;